EDT,Max TemperatureF,Mean TemperatureF,Min TemperatureF,Max Dew PointF,MeanDew PointF,Min DewpointF,Max Humidity, Mean Humidity, Min Humidity, Max Sea Level PressureIn, Mean Sea Level PressureIn, Min Sea Level PressureIn, Max VisibilityMiles, Mean VisibilityMiles, Min VisibilityMiles, Max Wind SpeedMPH, Mean Wind SpeedMPH, Max Gust SpeedMPH,PrecipitationIn, CloudCover, Events, WindDirDegrees
2013-4-1,48,40,31,39,24,14,82,57,32,30.09,29.95,29.75,10,10,9,21,11,26,T,5,,291
2013-4-2,43,33,23,16,13,9,60,45,30,30.24,30.19,30.10,10,10,10,18,8,25,0.00,2,,288
2013-4-3,45,34,23,16,13,8,62,44,25,30.41,30.36,30.25,10,10,10,20,6,31,0.00,0,,346
2013-4-4,52,37,21,21,15,10,71,46,21,30.40,30.19,30.00,10,10,10,9,2,14,0.00,0,,145
2013-4-5,58,42,25,30,23,18,81,55,28,30.18,30.04,29.97,10,10,10,17,5,24,0.00,0,,358
2013-4-6,58,43,27,21,15,10,63,39,15,30.29,30.16,29.96,10,10,10,14,6,23,0.00,1,,134
2013-4-7,73,63,53,45,37,15,55,39,22,29.99,29.92,29.89,10,10,10,22,11,29,T,3,,221
2013-4-8,75,61,46,49,45,41,86,60,33,30.01,29.95,29.89,10,10,7,22,7,31,T,3,,208
2013-4-9,82,66,49,54,51,46,89,63,36,30.09,29.99,29.91,10,10,10,18,7,26,0.00,2,,218
2013-4-10,84,71,57,59,56,54,93,68,42,29.95,29.89,29.78,10,10,10,37,9,52,0.02,4,Rain-Thunderstorm,232
2013-4-11,76,66,55,60,56,53,100,77,54,29.88,29.75,29.55,10,9,2,21,4,33,0.13,5,Rain,127
2013-4-12,61,52,42,59,47,32,93,77,60,29.90,29.64,29.47,10,9,3,20,10,29,0.35,8,Rain,240
2013-4-13,54,46,37,35,33,31,79,63,46,30.07,29.96,29.92,10,10,10,20,8,26,0.00,6,,252
2013-4-14,66,49,31,37,33,29,92,62,32,30.15,30.05,29.95,10,10,6,12,4,18,0.00,2,,108
2013-4-15,67,60,52,51,46,37,64,58,51,30.04,30.01,29.93,10,10,10,18,10,24,0.00,4,,156
2013-4-16,80,68,55,61,56,48,100,74,48,30.17,30.09,30.01,10,7,0,28,8,38,0.49,5,Fog-Rain-Thunderstorm,237
2013-4-17,64,59,53,57,55,51,100,87,73,30.24,30.17,30.04,10,6,0,15,4,22,0.04,7,Fog-Rain,44
2013-4-18,85,71,56,59,56,52,93,65,37,30.05,29.86,29.69,10,10,8,24,13,33,0.00,1,,176
2013-4-19,72,56,39,58,43,30,86,67,47,29.94,29.67,29.44,10,9,2,29,15,38,0.26,6,Rain,237
2013-4-20,48,39,30,32,27,23,82,62,42,30.42,30.16,29.96,10,10,2,26,9,35,0.01,5,Snow,274
2013-4-21,54,40,26,26,23,20,85,56,26,30.58,30.49,30.44,10,10,10,12,4,17,0.00,0,,59
2013-4-22,67,52,36,37,30,21,64,47,29,30.42,30.31,30.20,10,10,10,14,4,23,0.00,0,,135
2013-4-23,72,58,43,40,34,26,53,42,31,30.20,30.08,29.91,10,10,10,15,7,21,0.00,1,,155
2013-4-24,64,50,35,55,44,32,89,68,46,30.21,29.90,29.77,10,8,2,24,11,32,0.27,7,Rain,242
2013-4-25,57,44,30,37,32,29,96,67,38,30.38,30.28,30.22,10,10,6,18,6,26,T,3,,234
2013-4-26,61,46,30,35,31,27,92,61,29,30.48,30.42,30.38,10,10,8,9,1,28,0.00,0,,31
2013-4-27,71,53,34,41,33,29,89,56,22,30.38,30.27,30.12,10,10,10,15,4,20,0.00,1,,155
2013-4-28,62,58,53,56,51,40,93,74,55,30.12,29.97,29.88,10,7,2,15,7,22,0.90,7,Rain,148
2013-4-29,65,58,50,56,54,51,100,86,72,30.01,29.96,29.90,10,8,0,13,4,23,0.05,7,Fog-Rain,210
2013-4-30,76,61,45,55,48,44,100,72,43,30.10,30.04,30.01,10,5,0,10,3,25,0.00,2,Fog,126